createdAt,value
2018-11-27T00:00:37.875Z,99742.72
2018-11-27T00:03:32.428Z,99739.69
2018-11-27T00:06:22.564Z,99740.03
2018-11-27T00:09:13.133Z,99732.62
2018-11-27T00:12:03.426Z,99737.00
2018-11-27T00:14:54.332Z,99735.47
2018-11-27T00:17:44.807Z,99752.17
2018-11-27T00:20:35.224Z,99749.45
2018-11-27T00:23:25.642Z,99744.25
2018-11-27T00:26:16.347Z,99742.38
2018-11-27T00:29:07.012Z,99739.69
2018-11-27T00:31:57.093Z,99745.25
2018-11-27T00:34:47.876Z,99745.45
2018-11-27T00:37:37.949Z,99742.75
2018-11-27T00:40:28.729Z,99747.11
2018-11-27T00:43:18.714Z,99750.99
2018-11-27T00:46:08.486Z,99746.09
2018-11-27T00:48:58.548Z,99759.61
2018-11-27T00:51:49.189Z,99754.03
2018-11-27T00:54:39.336Z,99751.64
2018-11-27T00:57:29.683Z,99754.65
2018-11-27T01:00:21.176Z,99759.13
2018-11-27T01:03:11.292Z,99760.13
2018-11-27T01:06:02.119Z,99750.31
2018-11-27T01:08:52.194Z,99737.52
2018-11-27T01:11:42.981Z,99739.51
2018-11-27T01:14:33.128Z,99744.56
2018-11-27T01:17:23.088Z,99737.69
2018-11-27T01:20:17.931Z,99742.86
2018-11-27T01:23:08.333Z,99745.39
2018-11-27T01:25:58.748Z,99728.73
2018-11-27T01:28:49.702Z,99731.09
2018-11-27T01:31:41.139Z,99733.13
2018-11-27T01:34:31.314Z,99734.48
2018-11-27T01:37:22.156Z,99739.03
2018-11-27T01:40:20.698Z,99737.19
2018-11-27T01:43:10.853Z,99738.89
2018-11-27T01:46:01.175Z,99731.46
2018-11-27T01:48:51.782Z,99728.25
2018-11-27T01:51:42.690Z,99728.44
2018-11-27T01:54:33.541Z,99725.89
2018-11-27T01:57:23.379Z,99728.08
2018-11-27T02:00:24.325Z,99728.25
2018-11-27T02:03:14.588Z,99732.46
2018-11-27T02:06:05.378Z,99725.03
2018-11-27T02:08:55.440Z,99721.84
2018-11-27T02:11:46.322Z,99721.16
2018-11-27T02:14:37.511Z,99715.77
2018-11-27T02:17:27.862Z,99712.56
2018-11-27T02:20:18.630Z,99712.24
2018-11-27T02:23:09.372Z,99710.38
2018-11-27T02:26:00.259Z,99708.18
2018-11-27T02:28:51.230Z,99699.44
2018-11-27T02:31:41.254Z,99697.59
2018-11-27T02:34:32.124Z,99690.33
2018-11-27T02:37:22.985Z,99689.84
2018-11-27T02:40:14.033Z,99688.13
2018-11-27T02:43:04.687Z,99686.80
2018-11-27T02:45:55.375Z,99685.09
2018-11-27T02:48:45.465Z,99685.59
2018-11-27T02:51:35.207Z,99681.59
2018-11-27T02:54:25.141Z,99682.58
2018-11-27T02:57:15.869Z,99690.67
2018-11-27T03:00:07.584Z,99691.33
2018-11-27T03:02:58.559Z,99688.14
2018-11-27T03:05:49.042Z,99693.72
2018-11-27T03:08:39.662Z,99685.77
2018-11-27T03:11:30.382Z,99672.81
2018-11-27T03:14:21.269Z,99682.23
2018-11-27T03:17:12.008Z,99684.10
2018-11-27T03:20:02.748Z,99691.68
2018-11-27T03:22:52.617Z,99690.31
2018-11-27T03:25:42.668Z,99693.69
2018-11-27T03:28:32.662Z,99689.67
2018-11-27T03:31:23.856Z,99689.66
2018-11-27T03:34:14.305Z,99682.58
2018-11-27T03:37:04.273Z,99684.62
2018-11-27T03:39:54.223Z,99685.11
2018-11-27T03:42:45.028Z,99680.22
2018-11-27T03:45:35.950Z,99676.05
2018-11-27T03:48:25.876Z,99684.77
2018-11-27T03:51:16.739Z,99688.33
2018-11-27T03:54:07.619Z,99679.06
2018-11-27T03:56:58.467Z,99684.28
2018-11-27T03:59:49.096Z,99676.20
2018-11-27T04:02:39.137Z,99675.53
2018-11-27T04:05:29.756Z,99667.77
2018-11-27T04:08:19.895Z,99662.05
2018-11-27T04:11:10.594Z,99658.52
2018-11-27T04:14:01.454Z,99655.63
2018-11-27T04:16:52.916Z,99667.09
2018-11-27T04:19:43.146Z,99667.28
2018-11-27T04:22:33.088Z,99675.69
2018-11-27T04:25:24.063Z,99678.88
2018-11-27T04:28:14.667Z,99685.98
2018-11-27T04:31:04.558Z,99683.61
2018-11-27T04:33:55.340Z,99675.88
2018-11-27T04:36:46.871Z,99676.87
2018-11-27T04:39:36.811Z,99689.02
2018-11-27T04:42:27.623Z,99684.98
2018-11-27T04:45:20.126Z,99681.25
2018-11-27T04:48:10.102Z,99684.98
2018-11-27T04:50:59.990Z,99689.03
2018-11-27T04:53:50.741Z,99694.92
2018-11-27T04:56:40.783Z,99697.30
2018-11-27T04:59:31.721Z,99703.20
2018-11-27T05:02:22.562Z,99716.69
2018-11-27T05:05:13.487Z,99717.70
2018-11-27T05:08:04.763Z,99719.03
2018-11-27T05:10:54.919Z,99717.13
2018-11-27T05:13:45.723Z,99714.45
2018-11-27T05:16:35.862Z,99718.63
2018-11-27T05:19:26.852Z,99710.38
2018-11-27T05:22:17.910Z,99713.93
2018-11-27T05:25:12.780Z,99719.79
2018-11-27T05:28:02.990Z,99730.36
2018-11-27T05:30:53.632Z,99726.30
2018-11-27T05:33:43.592Z,99725.12
2018-11-27T05:36:34.458Z,99724.92
2018-11-27T05:39:24.460Z,99730.14
2018-11-27T05:42:14.408Z,99732.67
2018-11-27T05:45:05.343Z,99722.55
2018-11-27T05:47:55.968Z,99728.30
2018-11-27T05:50:46.024Z,99720.20
2018-11-27T05:53:35.898Z,99722.91
2018-11-27T05:56:26.071Z,99735.06
2018-11-27T05:59:16.764Z,99742.00
2018-11-27T06:02:06.700Z,99739.81
2018-11-27T06:04:57.313Z,99739.83
2018-11-27T06:07:47.483Z,99745.23
2018-11-27T06:10:37.529Z,99762.77
2018-11-27T06:13:28.449Z,99754.03
2018-11-27T06:16:19.280Z,99755.34
2018-11-27T06:19:09.214Z,99774.88
2018-11-27T06:22:03.671Z,99760.20
2018-11-27T06:24:54.107Z,99764.73
2018-11-27T06:27:45.022Z,99763.33
2018-11-27T06:30:36.410Z,99763.46
2018-11-27T06:33:26.367Z,99751.83
2018-11-27T06:36:16.570Z,99755.88
2018-11-27T06:39:09.479Z,99744.61
2018-11-27T06:42:00.275Z,99749.83
2018-11-27T06:44:50.856Z,99746.09
2018-11-27T06:47:40.874Z,99744.38
2018-11-27T06:50:31.323Z,99741.33
2018-11-27T06:53:22.369Z,99743.69
2018-11-27T06:56:12.562Z,99740.03
2018-11-27T06:59:03.323Z,99740.56
2018-11-27T07:01:53.313Z,99742.08
2018-11-27T07:04:43.462Z,99738.69
2018-11-27T07:07:33.514Z,99740.75
2018-11-27T07:10:27.477Z,99741.47
2018-11-27T07:13:24.406Z,99744.85
2018-11-27T07:16:14.711Z,99748.04
2018-11-27T07:19:05.435Z,99730.20
2018-11-27T07:21:55.435Z,99722.28
2018-11-27T07:24:46.130Z,99718.92
2018-11-27T07:27:36.442Z,99714.91
2018-11-27T07:30:26.658Z,99717.27
2018-11-27T07:33:17.155Z,99714.92
2018-11-27T07:36:08.198Z,99711.92
2018-11-27T07:38:57.136Z,99709.26
2018-11-27T07:41:47.812Z,99710.09
2018-11-27T07:44:37.778Z,99706.89
2018-11-27T07:47:27.810Z,99700.17
2018-11-27T07:50:18.931Z,99701.52
2018-11-27T07:53:09.785Z,99717.38
2018-11-27T07:56:01.467Z,99709.28
2018-11-27T07:58:51.539Z,99706.96
2018-11-27T08:01:42.475Z,99708.64
2018-11-27T08:04:32.304Z,99720.11
2018-11-27T08:07:23.258Z,99719.12
2018-11-27T08:10:17.929Z,99730.59
2018-11-27T08:13:09.245Z,99728.06
2018-11-27T08:15:59.448Z,99721.33
2018-11-27T08:18:50.319Z,99720.80
2018-11-27T08:21:41.082Z,99724.00
2018-11-27T08:24:31.066Z,99719.13
2018-11-27T08:27:20.899Z,99721.30
2018-11-27T08:30:16.175Z,99731.77
2018-11-27T08:33:07.262Z,99743.08
2018-11-27T08:35:57.703Z,99739.36
2018-11-27T08:38:48.523Z,99753.54
2018-11-27T08:41:40.411Z,99737.49
2018-11-27T08:44:29.294Z,99722.64
2018-11-27T08:47:19.990Z,99714.74
2018-11-27T08:50:12.921Z,99713.05
2018-11-27T08:53:04.604Z,99715.40
2018-11-27T08:55:55.183Z,99729.91
2018-11-27T08:58:46.272Z,99739.84
2018-11-27T09:01:37.035Z,99738.19
2018-11-27T09:04:27.020Z,99750.50
2018-11-27T09:07:17.799Z,99737.01
2018-11-27T09:10:11.443Z,99740.04
2018-11-27T09:13:01.335Z,99731.28
2018-11-27T09:15:51.152Z,99713.72
2018-11-27T09:18:42.190Z,99716.94
2018-11-27T09:21:32.839Z,99721.16
2018-11-27T09:24:23.795Z,99725.02
2018-11-27T09:27:14.767Z,99727.72
2018-11-27T09:30:10.040Z,99734.28
2018-11-27T09:33:00.644Z,99732.09
2018-11-27T09:35:51.308Z,99735.28
2018-11-27T09:38:41.266Z,99736.49
2018-11-27T09:41:31.161Z,99729.89
2018-11-27T09:44:21.399Z,99715.91
2018-11-27T09:47:12.358Z,99712.30
2018-11-27T09:50:02.959Z,99710.65
2018-11-27T09:52:53.700Z,99714.83
2018-11-27T09:55:43.851Z,99706.56
2018-11-27T09:58:34.442Z,99700.44
2018-11-27T10:01:24.305Z,99698.44
2018-11-27T10:04:14.283Z,99689.17
2018-11-27T10:07:05.060Z,99691.69
2018-11-27T10:09:55.842Z,99693.36
2018-11-27T10:12:45.887Z,99682.59
2018-11-27T10:15:36.774Z,99679.05
2018-11-27T10:18:27.679Z,99675.03
2018-11-27T10:21:18.163Z,99671.66
2018-11-27T10:24:10.973Z,99676.91
2018-11-27T10:27:01.184Z,99674.55
2018-11-27T10:29:51.974Z,99666.79
2018-11-27T10:32:42.661Z,99670.71
2018-11-27T10:35:44.466Z,99667.50
2018-11-27T10:38:34.451Z,99676.27
2018-11-27T10:41:25.354Z,99667.88
2018-11-27T10:44:16.678Z,99664.48
2018-11-27T10:47:06.890Z,99664.50
2018-11-27T10:49:57.610Z,99668.84
2018-11-27T10:52:49.525Z,99662.64
2018-11-27T10:55:40.091Z,99659.41
2018-11-27T10:58:30.878Z,99661.08
2018-11-27T11:01:26.595Z,99651.98
2018-11-27T11:04:16.582Z,99632.59
2018-11-27T11:07:06.719Z,99610.52
2018-11-27T11:09:57.600Z,99625.31
2018-11-27T11:12:48.199Z,99627.17
2018-11-27T11:15:38.097Z,99629.69
2018-11-27T11:18:28.873Z,99630.85
2018-11-27T11:21:19.835Z,99632.56
2018-11-27T11:24:10.536Z,99638.10
2018-11-27T11:27:01.143Z,99644.54
2018-11-27T11:29:51.991Z,99635.78
2018-11-27T11:32:42.911Z,99631.41
2018-11-27T11:35:33.450Z,99632.46
2018-11-27T11:38:24.731Z,99629.41
2018-11-27T11:41:16.270Z,99633.13
2018-11-27T11:44:08.118Z,99628.07
2018-11-27T11:46:58.816Z,99623.99
2018-11-27T11:49:49.762Z,99616.27
2018-11-27T11:52:45.267Z,99619.77
2018-11-27T11:55:30.993Z,99622.10
2018-11-27T11:58:21.892Z,99607.11
2018-11-27T12:01:12.688Z,99598.51
2018-11-27T12:04:03.408Z,99596.33
2018-11-27T12:06:54.405Z,99586.21
2018-11-27T12:09:45.190Z,99590.77
2018-11-27T12:12:35.280Z,99586.55
2018-11-27T12:15:26.022Z,99587.88
2018-11-27T12:18:17.050Z,99570.69
2018-11-27T12:21:07.507Z,99565.68
2018-11-27T12:23:57.391Z,99564.48
2018-11-27T12:26:48.306Z,99561.96
2018-11-27T12:29:38.842Z,99559.79
2018-11-27T12:32:29.613Z,99556.24
2018-11-27T12:35:20.081Z,99554.24
2018-11-27T12:38:10.517Z,99553.91
2018-11-27T12:41:01.295Z,99558.61
2018-11-27T12:43:51.019Z,99563.00
2018-11-27T12:46:40.955Z,99571.23
2018-11-27T12:49:32.362Z,99569.88
2018-11-27T12:52:22.875Z,99567.20
2018-11-27T12:55:16.881Z,99573.75
2018-11-27T12:58:09.018Z,99563.81
2018-11-27T13:00:59.538Z,99565.00
2018-11-27T13:03:50.357Z,99546.98
2018-11-27T13:06:41.212Z,99540.59
2018-11-27T13:09:32.219Z,99528.64
2018-11-27T13:12:22.788Z,99517.83
2018-11-27T13:15:16.470Z,99522.88
2018-11-27T13:18:07.055Z,99524.25
2018-11-27T13:20:57.130Z,99526.95
2018-11-27T13:23:47.020Z,99515.15
2018-11-27T13:26:37.073Z,99513.13
2018-11-27T13:29:27.794Z,99518.88
2018-11-27T13:32:17.861Z,99516.17
2018-11-27T13:35:11.109Z,99519.20
2018-11-27T13:38:01.681Z,99532.17
2018-11-27T13:40:52.290Z,99534.67
2018-11-27T13:43:43.193Z,99523.25
2018-11-27T13:46:33.651Z,99519.52
2018-11-27T13:49:23.657Z,99509.91
2018-11-27T13:52:13.610Z,99502.00
2018-11-27T13:55:03.703Z,99509.05
2018-11-27T13:57:54.363Z,99504.35
2018-11-27T14:00:44.433Z,99508.39
2018-11-27T14:03:35.109Z,99510.76
2018-11-27T14:06:25.949Z,99506.05
2018-11-27T14:09:16.898Z,99500.98
2018-11-27T14:12:07.096Z,99499.28
2018-11-27T14:14:57.699Z,99490.37
2018-11-27T14:17:47.876Z,99504.35
2018-11-27T14:20:37.731Z,99507.73
2018-11-27T14:23:27.663Z,99514.30
2018-11-27T14:26:18.426Z,99510.73
2018-11-27T14:29:09.235Z,99507.38
2018-11-27T14:31:59.223Z,99505.01
2018-11-27T14:34:50.034Z,99502.34
2018-11-27T14:37:39.743Z,99502.66
2018-11-27T14:40:30.708Z,99506.07
2018-11-27T14:43:20.683Z,99503.34
2018-11-27T14:46:10.526Z,99495.44
2018-11-27T14:49:00.480Z,99500.66
2018-11-27T14:51:50.563Z,99500.45
2018-11-27T14:54:41.270Z,99491.38
2018-11-27T14:57:32.113Z,99492.25
2018-11-27T15:00:24.072Z,99493.25
2018-11-27T15:03:14.734Z,99491.89
2018-11-27T15:06:05.402Z,99485.19
2018-11-27T15:08:56.399Z,99485.33
2018-11-27T15:11:46.075Z,99480.78
2018-11-27T15:14:36.758Z,99477.76
2018-11-27T15:17:27.544Z,99466.96
2018-11-27T15:20:18.522Z,99458.89
2018-11-27T15:23:09.302Z,99461.92
2018-11-27T15:25:59.129Z,99460.58
2018-11-27T15:28:49.140Z,99453.50
2018-11-27T15:31:39.902Z,99462.27
2018-11-27T15:34:30.622Z,99461.25
2018-11-27T15:37:20.579Z,99463.27
2018-11-27T15:40:19.109Z,99459.56
2018-11-27T15:43:09.765Z,99474.38
2018-11-27T15:46:00.273Z,99468.84
2018-11-27T15:48:50.396Z,99468.50
2018-11-27T15:51:40.359Z,99463.27
2018-11-27T15:54:31.136Z,99456.53
2018-11-27T15:57:21.197Z,99455.02
2018-11-27T16:00:14.256Z,99451.98
2018-11-27T16:03:04.717Z,99447.44
2018-11-27T16:05:55.494Z,99469.00
2018-11-27T16:08:45.947Z,99480.44
2018-11-27T16:11:36.800Z,99484.64
2018-11-27T16:14:27.180Z,99498.30
2018-11-27T16:17:17.821Z,99500.50
2018-11-27T16:20:15.685Z,99501.50
2018-11-27T16:23:05.668Z,99493.75
2018-11-27T16:25:56.479Z,99499.31
2018-11-27T16:28:47.204Z,99503.52
2018-11-27T16:31:37.064Z,99512.13
2018-11-27T16:34:27.965Z,99503.19
2018-11-27T16:37:18.864Z,99513.62
2018-11-27T16:40:13.822Z,99517.50
2018-11-27T16:43:04.689Z,99522.73
2018-11-27T16:45:55.433Z,99522.69
2018-11-27T16:48:46.159Z,99509.56
2018-11-27T16:51:37.067Z,99522.53
2018-11-27T16:54:27.894Z,99529.59
2018-11-27T16:57:17.715Z,99532.97
2018-11-27T17:00:16.983Z,99544.73
2018-11-27T17:03:08.770Z,99551.14
2018-11-27T17:05:59.105Z,99550.13
2018-11-27T17:08:49.801Z,99547.42
2018-11-27T17:11:40.814Z,99543.87
2018-11-27T17:14:31.539Z,99536.81
2018-11-27T17:17:22.485Z,99540.34
2018-11-27T17:20:16.562Z,99532.11
2018-11-27T17:23:09.178Z,99518.46
2018-11-27T17:26:04.006Z,99527.73
2018-11-27T17:28:49.994Z,99525.20
2018-11-27T17:31:40.028Z,99512.06
2018-11-27T17:34:30.859Z,99505.98
2018-11-27T17:37:21.043Z,99502.23
2018-11-27T17:40:12.950Z,99502.05
2018-11-27T17:43:03.309Z,99496.83
2018-11-27T17:45:54.011Z,99492.14
2018-11-27T17:48:44.922Z,99499.69
2018-11-27T17:51:35.511Z,99495.67
2018-11-27T17:54:26.644Z,99511.31
2018-11-27T17:57:17.189Z,99506.95
2018-11-27T18:00:20.176Z,99495.13
2018-11-27T18:03:11.939Z,99495.20
2018-11-27T18:06:02.665Z,99503.41
2018-11-27T18:08:53.348Z,99492.66
2018-11-27T18:11:43.617Z,99494.31
2018-11-27T18:14:34.448Z,99502.55
2018-11-27T18:17:24.529Z,99499.70
2018-11-27T18:20:15.422Z,99501.39
2018-11-27T18:23:05.450Z,99494.82
2018-11-27T18:25:56.154Z,99474.34
2018-11-27T18:28:46.067Z,99464.22
2018-11-27T18:31:36.658Z,99476.66
2018-11-27T18:34:27.631Z,99472.31
2018-11-27T18:37:18.194Z,99461.86
2018-11-27T18:40:11.982Z,99468.41
2018-11-27T18:43:01.947Z,99469.91
2018-11-27T18:45:52.694Z,99464.54
2018-11-27T18:48:42.757Z,99471.94
2018-11-27T18:51:33.626Z,99472.28
2018-11-27T18:54:23.651Z,99489.44
2018-11-27T18:57:14.636Z,99465.56
2018-11-27T19:00:10.130Z,99463.03
2018-11-27T19:03:01.088Z,99479.39
2018-11-27T19:05:50.786Z,99473.80
2018-11-27T19:08:40.699Z,99457.53
2018-11-27T19:11:31.491Z,99466.61
2018-11-27T19:14:22.820Z,99462.25
2018-11-27T19:17:12.874Z,99468.30
2018-11-27T19:20:03.052Z,99475.14
2018-11-27T19:22:54.988Z,99473.97
2018-11-27T19:25:45.783Z,99475.86
2018-11-27T19:28:36.378Z,99470.29
2018-11-27T19:31:26.304Z,99470.97
2018-11-27T19:34:17.047Z,99468.63
2018-11-27T19:37:07.090Z,99483.77
2018-11-27T19:39:57.819Z,99478.23
2018-11-27T19:42:47.814Z,99470.97
2018-11-27T19:45:39.445Z,99476.49
2018-11-27T19:48:29.590Z,99488.14
2018-11-27T19:51:19.574Z,99490.84
2018-11-27T19:54:09.583Z,99484.97
2018-11-27T19:57:00.409Z,99489.51
2018-11-27T19:59:51.466Z,99487.64
2018-11-27T20:02:42.162Z,99490.18
2018-11-27T20:05:32.870Z,99479.75
2018-11-27T20:08:22.650Z,99486.46
2018-11-27T20:11:12.783Z,99482.59
2018-11-27T20:14:03.314Z,99491.67
2018-11-27T20:16:54.185Z,99491.02
2018-11-27T20:19:43.984Z,99491.83
2018-11-27T20:22:33.874Z,99494.47
2018-11-27T20:25:25.155Z,99499.91
2018-11-27T20:28:15.796Z,99504.25
2018-11-27T20:31:06.698Z,99507.13
2018-11-27T20:33:57.357Z,99513.00
2018-11-27T20:36:48.102Z,99508.19
2018-11-27T20:39:38.775Z,99509.20
2018-11-27T20:42:28.626Z,99511.39
2018-11-27T20:45:20.481Z,99510.05
2018-11-27T20:48:19.609Z,99514.58
2018-11-27T20:51:10.294Z,99513.90
2018-11-27T20:54:00.985Z,99510.38
2018-11-27T20:56:50.982Z,99512.39
2018-11-27T20:59:41.737Z,99508.34
2018-11-27T21:02:32.402Z,99504.97
2018-11-27T21:05:23.111Z,99513.72
2018-11-27T21:08:13.829Z,99500.88
2018-11-27T21:11:08.302Z,99517.20
2018-11-27T21:13:54.588Z,99517.00
2018-11-27T21:16:45.263Z,99517.88
2018-11-27T21:19:35.279Z,99518.87
2018-11-27T21:22:25.939Z,99511.95
2018-11-27T21:25:24.345Z,99518.70
2018-11-27T21:28:16.100Z,99511.28
2018-11-27T21:31:08.281Z,99515.34
2018-11-27T21:33:58.398Z,99500.53
2018-11-27T21:36:48.269Z,99496.49
2018-11-27T21:39:38.977Z,99493.80
2018-11-27T21:42:29.756Z,99498.82
2018-11-27T21:45:24.075Z,99509.78
2018-11-27T21:48:14.552Z,99509.45
2018-11-27T21:51:05.459Z,99505.22
2018-11-27T21:53:56.272Z,99509.09
2018-11-27T21:56:47.082Z,99513.65
2018-11-27T21:59:37.936Z,99505.55
2018-11-27T22:02:29.667Z,99502.56
2018-11-27T22:05:20.814Z,99497.68
2018-11-27T22:08:11.501Z,99513.33
2018-11-27T22:11:02.351Z,99510.98
2018-11-27T22:13:53.894Z,99509.23
2018-11-27T22:16:43.852Z,99506.38
2018-11-27T22:19:33.565Z,99510.94
2018-11-27T22:22:24.142Z,99514.81
2018-11-27T22:25:14.123Z,99515.14
2018-11-27T22:28:05.364Z,99516.67
2018-11-27T22:30:55.529Z,99515.66
2018-11-27T22:33:46.578Z,99518.19
2018-11-27T22:36:37.259Z,99512.30
2018-11-27T22:39:27.180Z,99509.59
2018-11-27T22:42:18.193Z,99520.52
2018-11-27T22:45:12.532Z,99521.05
2018-11-27T22:48:02.945Z,99508.06
2018-11-27T22:50:53.026Z,99498.15
2018-11-27T22:53:43.623Z,99506.05
2018-11-27T22:56:34.321Z,99505.87
2018-11-27T22:59:24.922Z,99511.91
2018-11-27T23:02:15.614Z,99520.84
2018-11-27T23:05:06.836Z,99524.69
2018-11-27T23:07:58.543Z,99524.02
2018-11-27T23:10:49.659Z,99513.92
2018-11-27T23:13:40.299Z,99508.16
2018-11-27T23:16:31.181Z,99517.79
2018-11-27T23:19:21.878Z,99513.05
2018-11-27T23:22:12.852Z,99515.57
2018-11-27T23:25:03.609Z,99515.51
2018-11-27T23:27:53.605Z,99518.50
2018-11-27T23:30:44.298Z,99517.81
2018-11-27T23:33:35.193Z,99523.31
2018-11-27T23:36:26.048Z,99528.86
2018-11-27T23:39:16.647Z,99525.12
2018-11-27T23:42:07.463Z,99518.43
2018-11-27T23:44:56.920Z,99518.33
2018-11-27T23:47:47.020Z,99516.00
2018-11-27T23:50:37.802Z,99520.39
2018-11-27T23:53:28.266Z,99518.68
2018-11-27T23:56:18.916Z,99524.42
2018-11-27T23:59:09.720Z,99526.95
